N235MC KHRL-KMAF
Flight info
| Callsign | N235MC |
|---|---|
| Flight time | 1h 8m |
| Altitude | 40000 |
| Route | HRL COT FUSCO |
| Aircraft | LJ35/M-SGHRWXY/SB1 |
Departure
| Time | 2026-05-05 22:59 |
|---|---|
| Airport | Valley International Airport (KHRL) |
Arrival
| Time | 2026-05-06 00:07 |
|---|---|
| Airport | Midland International Air and Space Port (KMAF) |
| Time | Latitude | Longitude | Altitude | Speed | Heading |
|---|---|---|---|---|---|
| 2026-05-05 22:46 | 26.22528 | -97.64695 | 41 ft | 0 kts | 91° |
| 2026-05-05 22:53 | 26.22529 | -97.64688 | 41 ft | 2 kts | 72° |
| 2026-05-05 22:53 | 26.22530 | -97.64685 | 41 ft | 0 kts | 54° |
| 2026-05-05 22:54 | 26.22546 | -97.64677 | 41 ft | 6 kts | 358° |
| 2026-05-05 22:54 | 26.22549 | -97.64736 | 41 ft | 10 kts | 267° |
| 2026-05-05 22:54 | 26.22615 | -97.64758 | 42 ft | 12 kts | 1° |
| 2026-05-05 22:54 | 26.22709 | -97.64756 | 45 ft | 15 kts | 0° |
| 2026-05-05 22:55 | 26.22826 | -97.64755 | 48 ft | 19 kts | 1° |
| 2026-05-05 22:55 | 26.22977 | -97.64752 | 47 ft | 25 kts | 1° |
| 2026-05-05 22:55 | 26.23162 | -97.64750 | 48 ft | 28 kts | 0° |
| 2026-05-05 22:55 | 26.23334 | -97.64747 | 46 ft | 13 kts | 357° |
| 2026-05-05 22:56 | 26.23369 | -97.64777 | 45 ft | 0 kts | 285° |
| 2026-05-05 22:56 | 26.23369 | -97.64780 | 45 ft | 0 kts | 284° |
| 2026-05-05 22:56 | 26.23370 | -97.64783 | 45 ft | 0 kts | 282° |
| 2026-05-05 22:57 | 26.23371 | -97.64788 | 45 ft | 5 kts | 279° |
| 2026-05-05 22:57 | 26.23371 | -97.64851 | 45 ft | 8 kts | 264° |
| 2026-05-05 22:57 | 26.23345 | -97.64871 | 46 ft | 0 kts | 180° |
| 2026-05-05 22:58 | 26.23344 | -97.64871 | 46 ft | 0 kts | 180° |
| 2026-05-05 22:58 | 26.23179 | -97.64871 | 48 ft | 59 kts | 179° |
| 2026-05-05 22:59 | 26.22541 | -97.64878 | 43 ft | 121 kts | 179° |
| 2026-05-05 22:59 | 26.21587 | -97.64921 | 307 ft | 152 kts | 178° |
| 2026-05-05 22:59 | 26.20409 | -97.64947 | 767 ft | 183 kts | 177° |
| 2026-05-05 22:59 | 26.19072 | -97.65060 | 1423 ft | 206 kts | 194° |
| 2026-05-05 23:00 | 26.17240 | -97.67785 | 2908 ft | 258 kts | 259° |
| 2026-05-05 23:00 | 26.17505 | -97.69818 | 3757 ft | 278 kts | 285° |
| 2026-05-05 23:00 | 26.18607 | -97.71596 | 4865 ft | 274 kts | 315° |
| 2026-05-05 23:01 | 26.20132 | -97.72839 | 5966 ft | 274 kts | 326° |
| 2026-05-05 23:01 | 26.21815 | -97.73874 | 6808 ft | 278 kts | 329° |
| 2026-05-05 23:01 | 26.23545 | -97.74881 | 7606 ft | 282 kts | 328° |
| 2026-05-05 23:01 | 26.25292 | -97.75903 | 8422 ft | 285 kts | 328° |
| 2026-05-05 23:02 | 26.27034 | -97.76930 | 9368 ft | 282 kts | 328° |
| 2026-05-05 23:02 | 26.28771 | -97.77963 | 10159 ft | 285 kts | 327° |
| 2026-05-05 23:02 | 26.30533 | -97.79021 | 10904 ft | 291 kts | 327° |
| 2026-05-05 23:02 | 26.32309 | -97.80092 | 11703 ft | 297 kts | 327° |
| 2026-05-05 23:03 | 26.34142 | -97.81193 | 12525 ft | 302 kts | 327° |
| 2026-05-05 23:03 | 26.36004 | -97.82313 | 13379 ft | 306 kts | 327° |
| 2026-05-05 23:03 | 26.37879 | -97.83443 | 14185 ft | 309 kts | 327° |
| 2026-05-05 23:03 | 26.39785 | -97.84592 | 14990 ft | 314 kts | 327° |
| 2026-05-05 23:04 | 26.41719 | -97.85758 | 15814 ft | 318 kts | 327° |
| 2026-05-05 23:04 | 26.43673 | -97.86936 | 16696 ft | 320 kts | 327° |
| 2026-05-05 23:04 | 26.45637 | -97.88122 | 17609 ft | 322 kts | 327° |
| 2026-05-05 23:04 | 26.47612 | -97.89317 | 18470 ft | 324 kts | 326° |
| 2026-05-05 23:05 | 26.49602 | -97.90522 | 19273 ft | 327 kts | 326° |
| 2026-05-05 23:05 | 26.51609 | -97.91737 | 20099 ft | 329 kts | 326° |
| 2026-05-05 23:05 | 26.53628 | -97.92959 | 20912 ft | 333 kts | 326° |
| 2026-05-05 23:05 | 26.55683 | -97.94206 | 21684 ft | 339 kts | 326° |
| 2026-05-05 23:06 | 26.57771 | -97.95473 | 22493 ft | 345 kts | 325° |
| 2026-05-05 23:06 | 26.59896 | -97.96762 | 23312 ft | 350 kts | 325° |
| 2026-05-05 23:06 | 26.61323 | -97.97628 | 23740 ft | 355 kts | 324° |
| 2026-05-05 23:06 | 26.63521 | -97.98964 | 24404 ft | 364 kts | 324° |
| 2026-05-05 23:07 | 26.65765 | -98.00329 | 25118 ft | 371 kts | 324° |
| 2026-05-05 23:07 | 26.68047 | -98.01718 | 25864 ft | 376 kts | 324° |
| 2026-05-05 23:07 | 26.70357 | -98.03124 | 26636 ft | 381 kts | 324° |
| 2026-05-05 23:07 | 26.72694 | -98.04547 | 27437 ft | 385 kts | 324° |
| 2026-05-05 23:08 | 26.75054 | -98.05982 | 28258 ft | 388 kts | 324° |
| 2026-05-05 23:08 | 26.77434 | -98.07427 | 29102 ft | 390 kts | 324° |
| 2026-05-05 23:08 | 26.79826 | -98.08877 | 29934 ft | 392 kts | 323° |
| 2026-05-05 23:08 | 26.82233 | -98.10338 | 30666 ft | 394 kts | 323° |
| 2026-05-05 23:09 | 26.84648 | -98.11807 | 31352 ft | 397 kts | 323° |
| 2026-05-05 23:09 | 26.87084 | -98.13291 | 32049 ft | 399 kts | 323° |
| 2026-05-05 23:09 | 26.89526 | -98.14778 | 32761 ft | 400 kts | 323° |
| 2026-05-05 23:09 | 26.91971 | -98.16267 | 33504 ft | 399 kts | 323° |
| 2026-05-05 23:10 | 26.94406 | -98.17749 | 34262 ft | 397 kts | 323° |
| 2026-05-05 23:10 | 26.96819 | -98.19214 | 35040 ft | 392 kts | 323° |
| 2026-05-05 23:10 | 26.99216 | -98.20675 | 35723 ft | 390 kts | 323° |
| 2026-05-05 23:10 | 27.01598 | -98.22128 | 36392 ft | 388 kts | 323° |
| 2026-05-05 23:11 | 27.03934 | -98.23555 | 37037 ft | 386 kts | 323° |
| 2026-05-05 23:11 | 27.06287 | -98.24994 | 37671 ft | 384 kts | 323° |
| 2026-05-05 23:11 | 27.08628 | -98.26427 | 38294 ft | 383 kts | 323° |
| 2026-05-05 23:11 | 27.10964 | -98.27857 | 38806 ft | 381 kts | 323° |
| 2026-05-05 23:12 | 27.13290 | -98.29284 | 39288 ft | 380 kts | 323° |
| 2026-05-05 23:12 | 27.15611 | -98.30709 | 39620 ft | 383 kts | 323° |
| 2026-05-05 23:12 | 27.20373 | -98.33651 | 39707 ft | 399 kts | 324° |
| 2026-05-05 23:13 | 27.25352 | -98.36714 | 39742 ft | 416 kts | 323° |
| 2026-05-05 23:13 | 27.30520 | -98.39892 | 39743 ft | 429 kts | 324° |
| 2026-05-05 23:14 | 27.35808 | -98.43141 | 39741 ft | 437 kts | 324° |
| 2026-05-05 23:14 | 27.41164 | -98.46432 | 39739 ft | 440 kts | 324° |
| 2026-05-05 23:15 | 27.46537 | -98.49739 | 39729 ft | 441 kts | 324° |
| 2026-05-05 23:15 | 27.51921 | -98.53058 | 39729 ft | 441 kts | 324° |
| 2026-05-05 23:16 | 27.57267 | -98.56360 | 39740 ft | 441 kts | 324° |
| 2026-05-05 23:16 | 27.62620 | -98.59671 | 39741 ft | 441 kts | 324° |
| 2026-05-05 23:17 | 27.68025 | -98.63019 | 39740 ft | 441 kts | 324° |
| 2026-05-05 23:17 | 27.73409 | -98.66357 | 39730 ft | 441 kts | 324° |
| 2026-05-05 23:18 | 27.78787 | -98.69695 | 39739 ft | 441 kts | 324° |
| 2026-05-05 23:18 | 27.84164 | -98.73033 | 39787 ft | 441 kts | 323° |
| 2026-05-05 23:19 | 27.89535 | -98.76376 | 39770 ft | 441 kts | 323° |
| 2026-05-05 23:19 | 27.94903 | -98.79721 | 39802 ft | 440 kts | 323° |
| 2026-05-05 23:20 | 28.00267 | -98.83067 | 39802 ft | 440 kts | 323° |
| 2026-05-05 23:20 | 28.05633 | -98.86417 | 39838 ft | 440 kts | 323° |
| 2026-05-05 23:21 | 28.10989 | -98.89762 | 39849 ft | 437 kts | 322° |
| 2026-05-05 23:21 | 28.16287 | -98.93081 | 39861 ft | 434 kts | 322° |
| 2026-05-05 23:22 | 28.21554 | -98.96380 | 39797 ft | 430 kts | 322° |
| 2026-05-05 23:22 | 28.26778 | -98.99657 | 39766 ft | 428 kts | 322° |
| 2026-05-05 23:23 | 28.31985 | -99.02929 | 39751 ft | 427 kts | 322° |
| 2026-05-05 23:23 | 28.37171 | -99.06185 | 39751 ft | 425 kts | 322° |
| 2026-05-05 23:24 | 28.42338 | -99.09432 | 39725 ft | 423 kts | 321° |
| 2026-05-05 23:24 | 28.47351 | -99.12857 | 39715 ft | 417 kts | 317° |
| 2026-05-05 23:25 | 28.52082 | -99.16549 | 39713 ft | 415 kts | 316° |
| 2026-05-05 23:25 | 28.56834 | -99.20281 | 39712 ft | 415 kts | 316° |
| 2026-05-05 23:26 | 28.61582 | -99.24014 | 39710 ft | 415 kts | 316° |
| 2026-05-05 23:26 | 28.66326 | -99.27756 | 39722 ft | 415 kts | 315° |
| 2026-05-05 23:27 | 28.71057 | -99.31499 | 39712 ft | 414 kts | 315° |
| 2026-05-05 23:27 | 28.75777 | -99.35240 | 39710 ft | 413 kts | 315° |
| 2026-05-05 23:28 | 28.80494 | -99.38982 | 39715 ft | 413 kts | 315° |
| 2026-05-05 23:28 | 28.85212 | -99.42731 | 39715 ft | 413 kts | 315° |
| 2026-05-05 23:29 | 28.89923 | -99.46477 | 39727 ft | 413 kts | 315° |
| 2026-05-05 23:29 | 28.94645 | -99.50234 | 39736 ft | 414 kts | 314° |
| 2026-05-05 23:30 | 28.99366 | -99.53996 | 39741 ft | 414 kts | 314° |
| 2026-05-05 23:30 | 29.04085 | -99.57764 | 39754 ft | 414 kts | 314° |
| 2026-05-05 23:31 | 29.08801 | -99.61532 | 39760 ft | 414 kts | 314° |
| 2026-05-05 23:31 | 29.13518 | -99.65302 | 39767 ft | 414 kts | 314° |
| 2026-05-05 23:32 | 29.18232 | -99.69077 | 39771 ft | 414 kts | 314° |
| 2026-05-05 23:32 | 29.22932 | -99.72853 | 39770 ft | 412 kts | 314° |
| 2026-05-05 23:33 | 29.27617 | -99.76594 | 39769 ft | 410 kts | 314° |
| 2026-05-05 23:33 | 29.32285 | -99.80350 | 39754 ft | 410 kts | 314° |
| 2026-05-05 23:34 | 29.36949 | -99.84106 | 39766 ft | 410 kts | 314° |
| 2026-05-05 23:34 | 29.41600 | -99.87852 | 39749 ft | 412 kts | 314° |
| 2026-05-05 23:35 | 29.46325 | -99.91660 | 39758 ft | 412 kts | 314° |
| 2026-05-05 23:35 | 29.51013 | -99.95443 | 39742 ft | 411 kts | 314° |
| 2026-05-05 23:36 | 29.55656 | -99.99195 | 39746 ft | 411 kts | 314° |
| 2026-05-05 23:36 | 29.60325 | -100.02971 | 39736 ft | 410 kts | 314° |
| 2026-05-05 23:37 | 29.64989 | -100.06748 | 39757 ft | 410 kts | 314° |
| 2026-05-05 23:37 | 29.69644 | -100.10523 | 39789 ft | 409 kts | 314° |
| 2026-05-05 23:38 | 29.74296 | -100.14299 | 39835 ft | 409 kts | 314° |
| 2026-05-05 23:38 | 29.78941 | -100.18073 | 39851 ft | 408 kts | 313° |
| 2026-05-05 23:39 | 29.83576 | -100.21843 | 39881 ft | 407 kts | 313° |
| 2026-05-05 23:39 | 29.88195 | -100.25606 | 39890 ft | 406 kts | 313° |
| 2026-05-05 23:40 | 29.92810 | -100.29371 | 39882 ft | 406 kts | 313° |
| 2026-05-05 23:40 | 29.97419 | -100.33135 | 39715 ft | 406 kts | 313° |
| 2026-05-05 23:41 | 30.02004 | -100.36889 | 39721 ft | 404 kts | 313° |
| 2026-05-05 23:41 | 30.06576 | -100.40620 | 39710 ft | 401 kts | 313° |
| 2026-05-05 23:42 | 30.11140 | -100.44363 | 39722 ft | 403 kts | 312° |
| 2026-05-05 23:42 | 30.15712 | -100.48109 | 39720 ft | 403 kts | 313° |
| 2026-05-05 23:43 | 30.20247 | -100.51836 | 39722 ft | 401 kts | 312° |
| 2026-05-05 23:43 | 30.24806 | -100.55574 | 39730 ft | 403 kts | 312° |
| 2026-05-05 23:44 | 30.29377 | -100.59348 | 39762 ft | 405 kts | 313° |
| 2026-05-05 23:44 | 30.33965 | -100.63132 | 39789 ft | 405 kts | 313° |
| 2026-05-05 23:45 | 30.38553 | -100.66924 | 39815 ft | 406 kts | 313° |
| 2026-05-05 23:45 | 30.43150 | -100.70728 | 39833 ft | 407 kts | 313° |
| 2026-05-05 23:46 | 30.47782 | -100.74524 | 39836 ft | 408 kts | 313° |
| 2026-05-05 23:46 | 30.52388 | -100.78335 | 39860 ft | 404 kts | 312° |
| 2026-05-05 23:47 | 30.56945 | -100.82128 | 39466 ft | 404 kts | 312° |
| 2026-05-05 23:47 | 30.59234 | -100.84047 | 38986 ft | 408 kts | 312° |
| 2026-05-05 23:47 | 30.61555 | -100.85984 | 38501 ft | 413 kts | 312° |
| 2026-05-05 23:48 | 30.63903 | -100.87946 | 37948 ft | 417 kts | 312° |
| 2026-05-05 23:48 | 30.66260 | -100.89908 | 37386 ft | 417 kts | 312° |
| 2026-05-05 23:48 | 30.68622 | -100.91872 | 36825 ft | 418 kts | 312° |
| 2026-05-05 23:48 | 30.70992 | -100.93838 | 36292 ft | 416 kts | 312° |
| 2026-05-05 23:49 | 30.73344 | -100.95788 | 35778 ft | 415 kts | 312° |
| 2026-05-05 23:49 | 30.75687 | -100.97738 | 35266 ft | 414 kts | 311° |
| 2026-05-05 23:49 | 30.78036 | -100.99696 | 34812 ft | 416 kts | 311° |
| 2026-05-05 23:49 | 30.80386 | -101.01659 | 34307 ft | 416 kts | 311° |
| 2026-05-05 23:50 | 30.82738 | -101.03625 | 33814 ft | 417 kts | 311° |
| 2026-05-05 23:50 | 30.85098 | -101.05599 | 33253 ft | 417 kts | 311° |
| 2026-05-05 23:50 | 30.87449 | -101.07568 | 32689 ft | 417 kts | 311° |
| 2026-05-05 23:50 | 30.89802 | -101.09535 | 32144 ft | 416 kts | 311° |
| 2026-05-05 23:51 | 30.92149 | -101.11497 | 31594 ft | 415 kts | 311° |
| 2026-05-05 23:51 | 30.94467 | -101.13435 | 31016 ft | 414 kts | 311° |
| 2026-05-05 23:51 | 30.96805 | -101.15391 | 30504 ft | 413 kts | 312° |
| 2026-05-05 23:51 | 30.99138 | -101.17345 | 29997 ft | 412 kts | 312° |
| 2026-05-05 23:52 | 31.01463 | -101.19295 | 29436 ft | 411 kts | 312° |
| 2026-05-05 23:52 | 31.03783 | -101.21242 | 28894 ft | 411 kts | 312° |
| 2026-05-05 23:52 | 31.06102 | -101.23189 | 28318 ft | 410 kts | 312° |
| 2026-05-05 23:52 | 31.08413 | -101.25131 | 27749 ft | 409 kts | 312° |
| 2026-05-05 23:53 | 31.09935 | -101.26410 | 27403 ft | 406 kts | 312° |
| 2026-05-05 23:53 | 31.12981 | -101.28965 | 26762 ft | 399 kts | 312° |
| 2026-05-05 23:53 | 31.14466 | -101.30213 | 26444 ft | 396 kts | 312° |
| 2026-05-05 23:53 | 31.16655 | -101.32123 | 25941 ft | 390 kts | 310° |
| 2026-05-05 23:54 | 31.18721 | -101.34129 | 25448 ft | 386 kts | 309° |
| 2026-05-05 23:54 | 31.21026 | -101.35862 | 24943 ft | 398 kts | 319° |
| 2026-05-05 23:54 | 31.23362 | -101.37541 | 24428 ft | 390 kts | 314° |
| 2026-05-05 23:54 | 31.25523 | -101.39400 | 23918 ft | 382 kts | 311° |
| 2026-05-05 23:55 | 31.27597 | -101.41324 | 23410 ft | 379 kts | 310° |
| 2026-05-05 23:55 | 31.29643 | -101.43255 | 22853 ft | 377 kts | 310° |
| 2026-05-05 23:55 | 31.31672 | -101.45179 | 22259 ft | 374 kts | 310° |
| 2026-05-05 23:55 | 31.33680 | -101.47084 | 21674 ft | 371 kts | 310° |
| 2026-05-05 23:56 | 31.35673 | -101.48978 | 21098 ft | 368 kts | 310° |
| 2026-05-05 23:56 | 31.37659 | -101.50862 | 20533 ft | 365 kts | 310° |
| 2026-05-05 23:56 | 31.39625 | -101.52727 | 19984 ft | 362 kts | 311° |
| 2026-05-05 23:56 | 31.41574 | -101.54580 | 19448 ft | 361 kts | 311° |
| 2026-05-05 23:57 | 31.43520 | -101.56427 | 18913 ft | 359 kts | 311° |
| 2026-05-05 23:57 | 31.45453 | -101.58260 | 18390 ft | 357 kts | 311° |
| 2026-05-05 23:57 | 31.47380 | -101.60087 | 17846 ft | 356 kts | 312° |
| 2026-05-05 23:57 | 31.49297 | -101.61906 | 17254 ft | 354 kts | 312° |
| 2026-05-05 23:58 | 31.51212 | -101.63726 | 16670 ft | 354 kts | 312° |
| 2026-05-05 23:58 | 31.53119 | -101.65541 | 16104 ft | 351 kts | 313° |
| 2026-05-05 23:58 | 31.55006 | -101.67335 | 15577 ft | 347 kts | 313° |
| 2026-05-05 23:58 | 31.56876 | -101.69111 | 15058 ft | 345 kts | 313° |
| 2026-05-05 23:59 | 31.58731 | -101.70875 | 14537 ft | 343 kts | 313° |
| 2026-05-05 23:59 | 31.60575 | -101.72635 | 14029 ft | 341 kts | 313° |
| 2026-05-05 23:59 | 31.62413 | -101.74392 | 13519 ft | 340 kts | 313° |
| 2026-05-05 23:59 | 31.64245 | -101.76136 | 12948 ft | 337 kts | 313° |
| 2026-05-06 00:00 | 31.66049 | -101.77849 | 12388 ft | 332 kts | 313° |
| 2026-05-06 00:00 | 31.67836 | -101.79569 | 11843 ft | 330 kts | 314° |
| 2026-05-06 00:00 | 31.69607 | -101.81249 | 11296 ft | 326 kts | 314° |
| 2026-05-06 00:00 | 31.71365 | -101.82926 | 10771 ft | 325 kts | 314° |
| 2026-05-06 00:01 | 31.73076 | -101.84548 | 10249 ft | 293 kts | 314° |
| 2026-05-06 00:01 | 31.74620 | -101.86002 | 9777 ft | 277 kts | 314° |
| 2026-05-06 00:01 | 31.76075 | -101.87395 | 9157 ft | 270 kts | 314° |
| 2026-05-06 00:01 | 31.77527 | -101.88797 | 8782 ft | 271 kts | 314° |
| 2026-05-06 00:02 | 31.78983 | -101.90204 | 8430 ft | 272 kts | 314° |
| 2026-05-06 00:02 | 31.80448 | -101.91620 | 8077 ft | 273 kts | 316° |
| 2026-05-06 00:02 | 31.81920 | -101.93028 | 7730 ft | 273 kts | 316° |
| 2026-05-06 00:02 | 31.83402 | -101.94452 | 7391 ft | 276 kts | 317° |
| 2026-05-06 00:03 | 31.84860 | -101.95895 | 7063 ft | 270 kts | 312° |
| 2026-05-06 00:03 | 31.85830 | -101.97668 | 6736 ft | 249 kts | 290° |
| 2026-05-06 00:03 | 31.86469 | -101.99505 | 6420 ft | 237 kts | 291° |
| 2026-05-06 00:03 | 31.87132 | -102.01245 | 6114 ft | 231 kts | 292° |
| 2026-05-06 00:04 | 31.87791 | -102.02957 | 5800 ft | 229 kts | 292° |
| 2026-05-06 00:04 | 31.88435 | -102.04663 | 5500 ft | 228 kts | 291° |
| 2026-05-06 00:04 | 31.89071 | -102.06374 | 5199 ft | 227 kts | 291° |
| 2026-05-06 00:04 | 31.89705 | -102.08076 | 4903 ft | 227 kts | 291° |
| 2026-05-06 00:05 | 31.90955 | -102.11417 | 4319 ft | 217 kts | 291° |
| 2026-05-06 00:05 | 31.91549 | -102.13002 | 4044 ft | 205 kts | 291° |
| 2026-05-06 00:05 | 31.92103 | -102.14484 | 3797 ft | 186 kts | 291° |
| 2026-05-06 00:06 | 31.92584 | -102.15782 | 3580 ft | 160 kts | 290° |
| 2026-05-06 00:06 | 31.92995 | -102.16890 | 3379 ft | 131 kts | 290° |
| 2026-05-06 00:06 | 31.93358 | -102.17834 | 3150 ft | 125 kts | 290° |
| 2026-05-06 00:06 | 31.93694 | -102.18769 | 2960 ft | 124 kts | 290° |
| 2026-05-06 00:07 | 31.94038 | -102.19685 | 2864 ft | 116 kts | 293° |
| 2026-05-06 00:07 | 31.94280 | -102.20336 | 2862 ft | 50 kts | 294° |
| 2026-05-06 00:07 | 31.94335 | -102.20540 | 2857 ft | 16 kts | 232° |
| 2026-05-06 00:07 | 31.94257 | -102.20583 | 2856 ft | 3 kts | 215° |
| 2026-05-06 00:08 | 31.94236 | -102.20598 | 2858 ft | 6 kts | 163° |
| 2026-05-06 00:08 | 31.94170 | -102.20577 | 2856 ft | 14 kts | 175° |
| 2026-05-06 00:08 | 31.94058 | -102.20567 | 2857 ft | 19 kts | 177° |
| 2026-05-06 00:08 | 31.93967 | -102.20653 | 2856 ft | 15 kts | 268° |
| 2026-05-06 00:09 | 31.93984 | -102.20747 | 2859 ft | 8 kts | 358° |
| 2026-05-06 00:09 | 31.93996 | -102.20747 | 2859 ft | 0 kts | 3° |